KTOL/TOL METAR and TAF weather

Enter ICAO airport designator
Station Type Date Time Source
KTOL METAR 2019/08/26 07:52 UTC NOAA

KTOL 260752Z 11004KT 10SM CLR 17/12 A3003 RMK AO2 SLP166 T01720117


Station Type Date Time Source
KTOL Decoded METAR 2019/08/26 07:52 UTC NOAA

Station name not available
Aug 26, 2019 - 03:52 AM EDT / 2019.08.26 0752 UTC
Wind: from the ESE (110 degrees) at 5 MPH (4 KT):0
Visibility: 10 mile(s):0
Sky conditions: clear
Temperature: 63.0 F (17.2 C)
Dew Point: 53.1 F (11.7 C)
Relative Humidity: 70%
Pressure (altimeter): 30.03 in. Hg (1016 hPa)
ob: KTOL 260752Z 11004KT 10SM CLR 17/12 A3003 RMK AO2 SLP166 T01720117
cycle: 8

Station Type Date Time Source
KTOL TAF 2019/08/26 06:28 UTC NOAA

TAF KTOL 260526Z 2606/2706 12006KT P6SM SCT050 BKN250
FM261700 15010G18KT P6SM SCT040 OVC060 PROB30 2617/2621 4SM -SHRA BR BKN040
FM262100 14010G18KT 4SM -SHRA BR SCT008 OVC030
FM270000 15010G18KT 5SM -SHRA BR SCT008 OVC015
FM270200 16012KT 3SM -SHRA BR SCT008 OVC010
FM270400 17012KT P6SM SCT008 OVC020

Example: see airport list